Time;durP1;ratioP1;P1;durP2;ratioP2;P2;SDS_P1;SDS_P2;PMS_P1;PMS_P2;Temp;Humidity;BMP_temperature;BMP_pressure;BME280_temperature;BME280_humidity;BME280_pressure;Samples;Min_cycle;Max_cycle;Signal;HPM_P1;HPM_P2
2021/12/01 00:01:05;;;;;;;;;2.00;2.00;;;;;11.12;67.51;100715.88;5043638;28;45480;-77
2021/12/01 00:03:31;;;;;;;;;1.00;1.00;;;;;11.11;67.35;100706.19;5036008;28;66147;-78
2021/12/01 00:05:56;;;;;;;;;2.00;2.00;;;;;11.15;67.33;100713.25;5027342;28;54034;-77
2021/12/01 00:08:21;;;;;;;;;1.00;1.00;;;;;11.16;67.33;100701.81;5025288;28;55751;-77
2021/12/01 00:10:47;;;;;;;;;2.00;2.00;;;;;11.17;67.31;100693.00;5039675;28;56059;-80
2021/12/01 00:13:14;;;;;;;;;3.00;2.00;;;;;11.19;67.21;100696.56;5038277;28;45895;-79
2021/12/01 00:15:43;;;;;;;;;4.00;1.00;;;;;11.22;67.32;100691.28;5038539;28;45501;-77
2021/12/01 00:18:08;;;;;;;;;4.00;2.00;;;;;11.22;67.45;100669.25;5009773;28;45324;-78
2021/12/01 00:20:34;;;;;;;;;2.00;2.00;;;;;11.23;67.26;100653.38;5038408;28;45801;-79
2021/12/01 00:22:59;;;;;;;;;4.00;2.33;;;;;11.22;67.52;100648.09;5037931;28;47346;-77
2021/12/01 00:25:25;;;;;;;;;3.33;3.33;;;;;11.28;67.30;100645.50;5021031;28;54077;-79
2021/12/01 00:27:51;;;;;;;;;4.00;3.00;;;;;11.23;67.31;100626.97;5038476;28;45358;-80
2021/12/01 00:30:16;;;;;;;;;3.00;3.00;;;;;11.26;67.41;100616.41;5035290;28;45416;-77
2021/12/01 00:32:42;;;;;;;;;2.00;2.00;;;;;11.32;67.30;100606.75;5036654;28;45375;-77
2021/12/01 00:35:07;;;;;;;;;3.33;3.33;;;;;11.31;67.55;100607.63;5019166;28;45454;-77
2021/12/01 00:37:33;;;;;;;;;7.33;4.00;;;;;11.30;67.70;100590.00;5021246;28;45434;-77
2021/12/01 00:39:58;;;;;;;;;3.67;3.67;;;;;11.31;67.62;100589.13;5036294;28;45865;-77
2021/12/01 00:42:25;;;;;;;;;4.67;4.67;;;;;11.30;67.87;100577.69;5002083;28;61189;-77
2021/12/01 00:44:59;;;;;;;;;2.00;2.00;;;;;11.29;67.96;100570.59;5037658;28;46297;-77
2021/12/01 00:47:41;;;;;;;;;4.33;4.00;;;;;11.33;67.96;100567.09;5005943;28;45550;-79
2021/12/01 00:50:07;;;;;;;;;4.33;4.33;;;;;11.31;67.91;100550.38;5026234;28;45252;-77
2021/12/01 00:52:32;;;;;;;;;4.00;4.00;;;;;11.27;68.21;100544.19;5038432;28;45838;-78
2021/12/01 00:55:00;;;;;;;;;7.00;4.00;;;;;11.30;68.20;100526.59;5020853;28;58659;-77
2021/12/01 00:57:29;;;;;;;;;3.00;3.00;;;;;11.32;68.04;100528.34;5037951;28;45257;-77
2021/12/01 00:59:57;;;;;;;;;3.00;3.00;;;;;11.34;68.09;100530.97;5040631;28;54889;-76
2021/12/01 01:02:22;;;;;;;;;5.00;3.67;;;;;11.31;67.99;100520.41;5037868;28;65075;-76
2021/12/01 01:04:50;;;;;;;;;5.00;3.00;;;;;11.32;68.00;100511.59;5038698;28;45370;-79
2021/12/01 01:07:16;;;;;;;;;4.33;4.33;;;;;11.30;68.23;100501.03;5038392;28;45467;-77
2021/12/01 01:09:43;;;;;;;;;5.67;3.33;;;;;11.32;68.15;100499.25;5020663;28;45589;-78
2021/12/01 01:17:40;;;;;;;;;4.00;4.00;;;;;11.35;68.22;100485.19;5038904;28;45474;-76
2021/12/01 01:20:10;;;;;;;;;3.00;3.00;;;;;11.34;68.12;100476.34;5027503;28;45639;-77
2021/12/01 01:22:36;;;;;;;;;6.33;3.00;;;;;11.33;68.16;100465.78;5037986;28;47353;-79
2021/12/01 01:25:04;;;;;;;;;4.00;2.67;;;;;11.32;68.30;100464.91;5020604;28;45579;-78
2021/12/01 01:27:30;;;;;;;;;2.33;1.00;;;;;11.34;68.19;100467.53;5038178;28;45462;-77
2021/12/01 01:30:15;;;;;;;;;2.33;2.00;;;;;11.32;68.04;100464.91;5037727;28;61628;-78
2021/12/01 01:32:44;;;;;;;;;3.00;2.00;;;;;11.31;68.20;100463.16;5023193;28;46497;-77
2021/12/01 01:35:15;;;;;;;;;2.00;1.00;;;;;11.35;68.22;100459.63;5003899;28;45332;-77
2021/12/01 01:37:41;;;;;;;;;1.00;1.00;;;;;11.36;68.18;100463.16;5038469;28;45407;-77
2021/12/01 01:40:07;;;;;;;;;1.00;1.00;;;;;11.33;68.09;100460.50;5033249;28;45713;-77
2021/12/01 01:42:35;;;;;;;;;3.33;1.00;;;;;11.33;68.12;100440.22;5020204;28;47745;-76
2021/12/01 01:45:00;;;;;;;;;1.00;1.00;;;;;11.37;68.12;100442.00;5020126;28;45372;-77
2021/12/01 01:47:29;;;;;;;;;1.33;1.00;;;;;11.37;68.37;100455.22;5037326;28;55332;-77
2021/12/01 01:50:54;;;;;;;;;4.00;1.00;;;;;11.34;68.47;100439.34;5037950;28;45378;-80
2021/12/01 01:52:49;;;;;;;;;3.00;2.00;;;;;11.35;68.61;100441.13;5031895;28;45519;-77
2021/12/01 01:55:17;;;;;;;;;3.00;2.00;;;;;11.33;68.74;100432.28;5037315;28;51549;-77
2021/12/01 01:57:45;;;;;;;;;2.00;2.00;;;;;11.34;68.82;100441.09;5019568;28;51648;-77
2021/12/01 02:00:14;;;;;;;;;1.33;1.33;;;;;11.33;68.90;100444.63;5047631;28;45248;-77
2021/12/01 02:02:39;;;;;;;;;2.00;2.00;;;;;11.26;68.81;100422.59;5037069;28;46676;-76
2021/12/01 02:05:05;;;;;;;;;2.00;2.00;;;;;11.26;69.19;100439.34;5026018;28;58672;-78
2021/12/01 02:07:30;;;;;;;;;1.00;1.00;;;;;11.27;69.30;100435.81;5037722;28;45459;-77
2021/12/01 02:09:58;;;;;;;;;1.67;1.67;;;;;11.27;69.22;100425.25;5002172;28;53007;-77
2021/12/01 02:12:26;;;;;;;;;2.67;1.00;;;;;11.28;69.27;100407.63;5036817;28;66073;-77
2021/12/01 02:14:52;;;;;;;;;1.00;1.00;;;;;11.26;69.26;100397.06;5036733;28;65806;-80
2021/12/01 02:17:17;;;;;;;;;2.00;2.00;;;;;11.23;69.40;100390.88;5037040;28;59074;-77
2021/12/01 02:19:42;;;;;;;;;1.00;1.00;;;;;11.26;69.22;100386.47;5036923;28;56309;-77
2021/12/01 02:22:08;;;;;;;;;2.00;2.00;;;;;11.26;69.36;100398.81;5037263;28;46399;-77
2021/12/01 02:24:33;;;;;;;;;0.00;0.00;;;;;11.27;69.13;100377.66;5004738;28;59698;-77
2021/12/01 02:26:59;;;;;;;;;1.00;1.00;;;;;11.29;69.19;100380.31;5037037;28;55919;-77
2021/12/01 02:29:25;;;;;;;;;3.00;1.00;;;;;11.32;69.25;100380.31;5037244;28;45603;-77
2021/12/01 02:31:51;;;;;;;;;1.00;1.00;;;;;11.28;69.20;100360.91;5019619;28;47028;-78
2021/12/01 02:34:22;;;;;;;;;1.00;1.00;;;;;11.32;69.20;100345.09;5019519;28;45302;-80
2021/12/01 02:36:50;;;;;;;;;1.00;1.00;;;;;11.30;69.38;100336.28;5037759;28;45384;-77
2021/12/01 02:39:16;;;;;;;;;2.00;1.33;;;;;11.35;69.15;100337.16;5022092;28;45258;-77
2021/12/01 02:41:42;;;;;;;;;2.33;1.00;;;;;11.35;69.25;100327.47;5021264;28;46476;-80
2021/12/01 02:44:08;;;;;;;;;1.00;1.00;;;;;11.37;69.40;100322.19;5037201;28;45439;-77
2021/12/01 02:46:34;;;;;;;;;3.67;1.67;;;;;11.37;70.08;100309.84;5019445;28;45489;-77
2021/12/01 02:49:00;;;;;;;;;1.00;1.00;;;;;11.39;69.65;100300.13;5037043;28;45420;-77
2021/12/01 02:51:31;;;;;;;;;3.33;2.33;;;;;11.38;69.70;100295.72;5036503;28;47416;-77
2021/12/01 02:53:56;;;;;;;;;1.33;1.33;;;;;11.41;69.82;100285.16;5036773;28;45452;-77
2021/12/01 02:56:22;;;;;;;;;2.00;2.00;;;;;11.43;70.06;100280.75;5018813;28;58512;-80
2021/12/01 02:58:48;;;;;;;;;3.00;3.00;;;;;11.40;70.14;100256.97;5042495;28;45220;-79
2021/12/01 03:01:16;;;;;;;;;2.67;2.33;;;;;11.41;70.01;100258.72;5027576;28;47492;-77
2021/12/01 03:03:41;;;;;;;;;2.00;2.00;;;;;11.39;69.88;100249.91;5036783;28;45430;-78
2021/12/01 03:06:07;;;;;;;;;5.00;2.00;;;;;11.35;69.85;100223.50;5018796;28;58139;-77
2021/12/01 03:08:33;;;;;;;;;2.00;2.00;;;;;11.37;70.18;100238.47;5019242;28;45375;-77
2021/12/01 03:10:59;;;;;;;;;3.33;2.67;;;;;11.32;70.29;100232.31;5036628;28;46710;-78
2021/12/01 03:13:24;;;;;;;;;2.00;2.00;;;;;11.38;70.13;100234.94;5005792;28;45244;-78
2021/12/01 03:15:50;;;;;;;;;1.00;1.00;;;;;11.40;70.49;100234.91;5036956;28;45330;-77
2021/12/01 03:18:16;;;;;;;;;2.00;2.00;;;;;11.40;70.24;100224.34;5036531;28;50198;-77
2021/12/01 03:20:41;;;;;;;;;2.00;2.00;;;;;11.36;70.16;100215.56;5013053;28;57802;-76
2021/12/01 03:23:07;;;;;;;;;1.33;1.33;;;;;11.39;70.31;100212.91;5025765;28;45219;-80
2021/12/01 03:25:32;;;;;;;;;1.00;1.00;;;;;11.40;70.60;100204.13;5036511;28;45317;-79
2021/12/01 03:27:58;;;;;;;;;1.00;1.00;;;;;11.36;71.41;100212.06;5031870;28;45572;-77
2021/12/01 03:30:23;;;;;;;;;0.67;0.67;;;;;11.35;71.17;100192.66;5035847;28;46496;-77
2021/12/01 03:32:49;;;;;;;;;2.67;1.00;;;;;11.33;71.22;100196.19;5035677;28;63234;-77
2021/12/01 03:35:14;;;;;;;;;0.00;0.00;;;;;11.31;71.57;100188.28;5036550;28;45242;-76
2021/12/01 03:37:41;;;;;;;;;2.00;1.00;;;;;11.34;72.14;100180.31;5019009;28;46914;-77
2021/12/01 03:40:07;;;;;;;;;1.00;1.00;;;;;11.30;72.56;100160.09;5035772;28;45811;-77
2021/12/01 03:42:32;;;;;;;;;1.67;1.00;;;;;11.28;72.32;100151.25;5036559;28;45304;-76
2021/12/01 03:44:58;;;;;;;;;1.00;1.00;;;;;11.29;73.56;100153.00;5034598;28;57503;-77
2021/12/01 03:47:24;;;;;;;;;0.33;0.33;;;;;11.27;72.56;100155.66;5018322;28;59871;-80
2021/12/01 03:49:49;;;;;;;;;1.00;1.00;;;;;11.24;73.41;100141.59;5029107;28;45861;-77
2021/12/01 03:52:17;;;;;;;;;3.00;0.67;;;;;11.23;73.84;100126.59;5017458;28;60831;-76
2021/12/01 03:54:43;;;;;;;;;2.00;0.33;;;;;11.18;73.66;100123.97;5018957;28;45259;-76
2021/12/01 03:57:09;;;;;;;;;2.00;0.00;;;;;11.13;74.44;100103.75;5036298;28;45574;-78
2021/12/01 03:59:34;;;;;;;;;0.00;0.00;;;;;11.18;74.24;100102.84;5035176;28;66187;-77
2021/12/01 04:01:59;;;;;;;;;0.00;0.00;;;;;11.16;74.44;100086.13;5035920;28;50816;-78
2021/12/01 04:04:25;;;;;;;;;2.00;1.00;;;;;11.15;74.66;100094.06;5036171;28;45297;-78
2021/12/01 04:06:50;;;;;;;;;0.00;0.00;;;;;11.13;74.84;100094.06;5035444;28;54221;-78
2021/12/01 04:09:16;;;;;;;;;1.00;1.00;;;;;11.10;74.90;100072.06;5035336;28;46380;-77
2021/12/01 04:11:41;;;;;;;;;2.00;0.33;;;;;11.13;75.58;100070.31;5035652;28;56151;-77
2021/12/01 04:14:06;;;;;;;;;2.00;1.00;;;;;11.08;76.32;100044.75;5035992;28;45773;-76
2021/12/01 04:16:32;;;;;;;;;1.00;1.00;;;;;11.11;75.67;100042.09;5017338;28;45525;-77
2021/12/01 04:18:57;;;;;;;;;0.00;0.00;;;;;11.14;75.66;100042.13;5034917;28;66689;-75
2021/12/01 04:21:25;;;;;;;;;1.00;1.00;;;;;11.14;75.41;100031.53;5018050;28;45420;-76
2021/12/01 04:23:50;;;;;;;;;2.00;1.00;;;;;11.14;76.40;100036.81;5036571;28;45392;-78
2021/12/01 04:26:19;;;;;;;;;3.00;1.00;;;;;11.15;76.35;100013.03;5039230;28;45455;-77
2021/12/01 04:28:45;;;;;;;;;0.00;0.00;;;;;11.12;77.06;100020.97;5039709;28;46421;-77
2021/12/01 04:31:11;;;;;;;;;0.00;0.00;;;;;11.13;76.21;100016.56;5039066;28;45336;-78
2021/12/01 04:33:37;;;;;;;;;0.00;0.00;;;;;11.14;77.09;99999.84;5039178;28;45408;-77
2021/12/01 04:36:02;;;;;;;;;0.00;0.00;;;;;11.10;76.36;99982.25;5020867;28;55654;-78
2021/12/01 04:38:28;;;;;;;;;0.00;0.00;;;;;11.14;76.11;99981.34;5031595;28;47527;-77
2021/12/01 04:40:53;;;;;;;;;1.00;0.00;;;;;11.15;76.83;99981.31;5038595;28;58933;-77
2021/12/01 04:43:19;;;;;;;;;0.33;0.33;;;;;11.16;76.79;99966.34;5038649;28;56861;-77
2021/12/01 04:45:46;;;;;;;;;0.00;0.00;;;;;11.14;77.00;99954.91;5039010;28;45524;-77
2021/12/01 04:48:11;;;;;;;;;1.00;0.00;;;;;11.08;83.98;99952.28;5038705;28;46655;-78
2021/12/01 04:50:36;;;;;;;;;0.00;0.00;;;;;11.11;84.71;99934.66;5037957;28;63717;-78
2021/12/01 04:53:02;;;;;;;;;0.00;0.00;;;;;11.15;79.31;99938.19;5038812;28;45221;-78
2021/12/01 04:55:27;;;;;;;;;1.00;1.00;;;;;11.18;78.72;99928.44;5039030;28;45213;-77
2021/12/01 04:57:53;;;;;;;;;0.33;0.33;;;;;11.15;78.45;99919.69;5038563;28;45762;-77
2021/12/01 05:00:20;;;;;;;;;1.00;1.00;;;;;11.17;77.74;99916.13;5046500;28;57861;-78
2021/12/01 05:02:46;;;;;;;;;1.67;0.67;;;;;11.21;77.46;99911.72;5038684;28;45229;-78
2021/12/01 05:05:11;;;;;;;;;2.67;1.00;;;;;11.21;76.63;99907.31;5039085;28;45484;-77
2021/12/01 05:07:37;;;;;;;;;1.00;1.00;;;;;11.19;77.01;99898.53;5020842;28;45902;-77
2021/12/01 05:10:03;;;;;;;;;1.33;1.00;;;;;11.20;76.50;99886.19;5038778;28;45464;-76
2021/12/01 05:12:29;;;;;;;;;1.00;1.00;;;;;11.26;76.65;99886.13;5038758;28;45454;-76
2021/12/01 05:14:55;;;;;;;;;0.67;0.67;;;;;11.27;76.25;99886.13;5038395;28;45661;-76
2021/12/01 05:17:20;;;;;;;;;2.00;0.00;;;;;11.28;76.26;99887.88;5037848;28;59463;-77
2021/12/01 05:19:46;;;;;;;;;0.00;0.00;;;;;11.30;76.59;99881.72;5038164;28;45325;-77
2021/12/01 05:22:12;;;;;;;;;0.00;0.00;;;;;11.28;76.40;99884.34;5038431;28;45300;-77
2021/12/01 05:24:37;;;;;;;;;2.00;0.00;;;;;11.27;76.27;99880.84;5038060;28;57017;-76
2021/12/01 05:27:04;;;;;;;;;1.00;1.00;;;;;11.25;76.22;99873.81;5038549;28;45633;-76
2021/12/01 05:29:30;;;;;;;;;0.33;0.33;;;;;11.28;76.25;99881.72;5021405;28;45594;-76
2021/12/01 05:31:55;;;;;;;;;0.00;0.00;;;;;11.24;75.92;99880.00;5040296;28;45520;-78
2021/12/01 05:34:21;;;;;;;;;0.00;0.00;;;;;11.28;76.04;99882.59;5038469;28;52706;-77
2021/12/01 05:36:46;;;;;;;;;0.00;0.00;;;;;11.28;75.93;99871.13;5039124;28;45716;-78
2021/12/01 05:39:12;;;;;;;;;0.00;0.00;;;;;11.28;75.86;99861.44;5037983;28;45332;-77
2021/12/01 05:41:37;;;;;;;;;0.00;0.00;;;;;11.30;75.99;99866.75;5020255;28;45775;-79
2021/12/01 05:44:03;;;;;;;;;0.00;0.00;;;;;11.28;76.00;99864.09;5038517;28;45322;-79
2021/12/01 05:46:28;;;;;;;;;0.00;0.00;;;;;11.30;75.70;99848.25;5026141;28;46256;-78
2021/12/01 05:48:57;;;;;;;;;0.00;0.00;;;;;11.32;75.71;99846.44;5036851;28;63255;-76
2021/12/01 05:51:22;;;;;;;;;0.00;0.00;;;;;11.35;75.97;99849.09;5036670;28;60798;-77
2021/12/01 05:53:48;;;;;;;;;0.00;0.00;;;;;11.33;76.37;99836.75;5020479;28;45374;-77
2021/12/01 05:56:13;;;;;;;;;2.00;0.00;;;;;11.36;75.93;99845.53;5019994;28;45514;-80
2021/12/01 05:58:39;;;;;;;;;0.00;0.00;;;;;11.33;75.76;99827.06;5020389;28;45261;-78
2021/12/01 06:01:04;;;;;;;;;0.00;0.00;;;;;11.34;75.81;99834.09;5037443;28;56025;-77
2021/12/01 06:03:30;;;;;;;;;0.00;0.00;;;;;11.34;75.68;99820.00;5038136;28;45343;-77
2021/12/01 06:05:55;;;;;;;;;0.00;0.00;;;;;11.34;75.74;99809.44;5037928;28;45544;-77
2021/12/01 06:08:21;;;;;;;;;1.00;0.00;;;;;11.37;75.79;99812.94;5019758;28;45377;-76
2021/12/01 06:10:46;;;;;;;;;0.00;0.00;;;;;11.37;76.20;99801.47;5019999;28;45478;-77
2021/12/01 06:13:17;;;;;;;;;0.00;0.00;;;;;11.39;75.76;99783.84;5031559;28;52465;-77
2021/12/01 06:15:44;;;;;;;;;0.00;0.00;;;;;11.38;76.19;99780.31;5036861;28;46658;-77
2021/12/01 06:18:10;;;;;;;;;0.00;0.00;;;;;11.34;76.09;99775.06;5003449;28;45384;-77
2021/12/01 06:20:35;;;;;;;;;1.00;0.00;;;;;11.41;76.16;99792.66;5035897;28;45391;-77
2021/12/01 06:23:01;;;;;;;;;1.00;0.00;;;;;11.41;76.05;99772.38;5030114;28;58649;-77
2021/12/01 06:25:26;;;;;;;;;0.00;0.00;;;;;11.42;76.15;99779.41;5030236;28;65411;-79
2021/12/01 06:27:52;;;;;;;;;0.00;0.00;;;;;11.42;76.10;99784.69;5035979;28;45471;-79
2021/12/01 06:30:17;;;;;;;;;0.00;0.00;;;;;11.42;75.94;99773.25;5037477;28;45379;-78
2021/12/01 06:32:43;;;;;;;;;0.00;0.00;;;;;11.43;75.90;99773.22;5030933;28;45585;-81
2021/12/01 06:35:08;;;;;;;;;0.00;0.00;;;;;11.44;76.17;99767.03;5035157;28;55931;-77
2021/12/01 06:37:34;;;;;;;;;0.00;0.00;;;;;11.42;76.10;99757.38;5030371;28;45438;-76
2021/12/01 06:39:59;;;;;;;;;1.00;0.00;;;;;11.41;76.04;99751.22;5036726;28;60819;-74
2021/12/01 06:42:24;;;;;;;;;0.00;0.00;;;;;11.46;75.99;99752.06;5036553;28;56247;-76
2021/12/01 06:44:50;;;;;;;;;0.00;0.00;;;;;11.47;75.99;99745.88;5036216;28;56962;-76
2021/12/01 06:47:16;;;;;;;;;1.00;0.00;;;;;11.48;76.21;99744.97;5035319;28;61200;-78
2021/12/01 06:49:45;;;;;;;;;1.00;0.00;;;;;11.52;76.21;99745.84;5036662;28;45953;-78
2021/12/01 06:52:12;;;;;;;;;0.00;0.00;;;;;11.52;76.17;99741.41;5030286;28;45589;-78
2021/12/01 06:54:38;;;;;;;;;0.00;0.00;;;;;11.53;76.44;99745.81;5036661;28;47391;-76
2021/12/01 06:57:03;;;;;;;;;0.00;0.00;;;;;11.57;76.14;99743.16;5036693;28;45304;-78
2021/12/01 06:59:28;;;;;;;;;1.00;0.00;;;;;11.58;76.56;99745.75;5036728;28;45478;-77
2021/12/01 07:01:54;;;;;;;;;1.00;0.00;;;;;11.57;76.60;99736.09;5035319;28;56384;-76
2021/12/01 07:04:19;;;;;;;;;0.00;0.00;;;;;11.61;76.55;99739.56;5036796;28;47342;-80
2021/12/01 07:06:45;;;;;;;;;0.00;0.00;;;;;11.65;76.42;99728.06;5036360;28;55235;-76
2021/12/01 07:09:17;;;;;;;;;0.00;0.00;;;;;11.67;76.52;99734.22;5036664;28;45356;-77
2021/12/01 07:11:43;;;;;;;;;0.00;0.00;;;;;11.69;77.32;99735.06;5036822;28;45700;-75
2021/12/01 07:14:08;;;;;;;;;0.00;0.00;;;;;11.63;77.64;99735.16;5029695;28;66463;-75
2021/12/01 07:17:09;;;;;;;;;0.00;0.00;;;;;11.64;78.67;99736.88;5024520;28;62003;-75
2021/12/01 07:19:35;;;;;;;;;0.00;0.00;;;;;11.60;78.71;99738.69;5032586;28;45443;-76
2021/12/01 07:22:01;;;;;;;;;0.00;0.00;;;;;11.54;79.78;99736.97;5034028;28;45573;-74
2021/12/01 07:24:29;;;;;;;;;0.00;0.00;;;;;11.49;80.01;99727.34;5033419;28;46351;-75
2021/12/01 07:26:54;;;;;;;;;0.33;0.33;;;;;11.45;80.83;99744.13;5030010;28;45616;-75
2021/12/01 07:29:20;;;;;;;;;1.00;1.00;;;;;11.41;80.87;99735.38;5032358;28;45611;-74
2021/12/01 07:31:46;;;;;;;;;1.00;1.00;;;;;11.35;80.76;99729.28;5034848;28;45638;-75
2021/12/01 07:34:12;;;;;;;;;0.00;0.00;;;;;11.43;80.19;99727.41;5033104;28;47325;-74
2021/12/01 07:36:37;;;;;;;;;0.00;0.00;;;;;11.40;80.73;99743.28;5035187;28;45471;-77
2021/12/01 07:39:16;;;;;;;;;0.00;0.00;;;;;11.38;80.53;99732.75;5033613;28;58884;-74
2021/12/01 07:41:41;;;;;;;;;0.33;0.33;;;;;11.32;80.04;99727.53;5022627;28;45535;-78
2021/12/01 07:44:07;;;;;;;;;0.00;0.00;;;;;11.32;80.18;99734.59;5042816;28;65378;-75
2021/12/01 07:46:32;;;;;;;;;0.00;0.00;;;;;11.32;79.87;99732.81;5038275;28;45434;-75
2021/12/01 07:48:57;;;;;;;;;0.00;0.00;;;;;11.35;80.26;99734.56;5036848;28;60605;-77
2021/12/01 07:51:23;;;;;;;;;0.00;0.00;;;;;11.36;80.02;99729.25;5035775;28;45685;-75
2021/12/01 07:53:49;;;;;;;;;1.00;0.00;;;;;11.41;79.88;99729.22;5040690;28;61783;-75
2021/12/01 07:56:14;;;;;;;;;0.00;0.00;;;;;11.45;79.28;99726.53;5034277;28;45535;-77
2021/12/01 07:58:40;;;;;;;;;1.67;0.00;;;;;11.51;78.95;99723.81;5042871;28;45636;-78
2021/12/01 08:01:05;;;;;;;;;0.00;0.00;;;;;11.54;78.54;99721.13;5040626;28;45562;-76
2021/12/01 08:03:30;;;;;;;;;1.00;0.00;;;;;11.49;78.55;99704.44;5036832;28;60514;-76
2021/12/01 08:05:56;;;;;;;;;0.00;0.00;;;;;11.53;78.64;99716.72;5027438;28;57739;-75
2021/12/01 08:08:21;;;;;;;;;1.00;0.00;;;;;11.55;78.33;99714.06;5042259;28;45764;-75
2021/12/01 08:10:47;;;;;;;;;0.00;0.00;;;;;11.59;78.34;99713.13;5033799;28;45540;-76
2021/12/01 08:13:12;;;;;;;;;0.00;0.00;;;;;11.61;78.12;99694.59;5036384;28;46838;-75
2021/12/01 08:15:38;;;;;;;;;0.00;0.00;;;;;11.64;77.98;99700.75;5036855;28;64632;-75
2021/12/01 08:18:03;;;;;;;;;0.00;0.00;;;;;11.63;78.07;99696.34;5037268;28;57527;-75
2021/12/01 08:20:28;;;;;;;;;1.00;0.00;;;;;11.61;77.94;99684.03;5037285;28;45445;-75
2021/12/01 08:22:54;;;;;;;;;0.33;0.00;;;;;11.60;77.90;99695.50;5037805;28;52285;-74
2021/12/01 08:25:20;;;;;;;;;1.00;0.00;;;;;11.61;77.95;99697.25;5038922;28;45531;-75
2021/12/01 08:27:46;;;;;;;;;0.00;0.00;;;;;11.63;78.00;99700.78;5040109;28;45462;-74
2021/12/01 08:30:11;;;;;;;;;1.00;0.00;;;;;11.68;77.79;99706.88;5032273;28;46564;-75
2021/12/01 08:32:37;;;;;;;;;0.00;0.00;;;;;11.63;77.58;99693.72;5035178;28;47615;-75
2021/12/01 08:35:08;;;;;;;;;0.00;0.00;;;;;11.70;77.69;99715.66;5034674;28;45593;-76
2021/12/01 08:37:33;;;;;;;;;0.00;0.00;;;;;11.70;77.72;99708.59;5037152;28;45348;-76
2021/12/01 08:39:59;;;;;;;;;0.00;0.00;;;;;11.83;77.64;99697.94;5036609;28;59168;-75
2021/12/01 08:42:24;;;;;;;;;0.00;0.00;;;;;11.94;77.41;99703.97;5036718;28;46384;-75
2021/12/01 08:44:50;;;;;;;;;1.00;0.00;;;;;12.03;76.93;99702.06;5037590;28;45431;-76
2021/12/01 08:47:16;;;;;;;;;0.00;0.00;;;;;12.09;76.63;99695.84;5037012;28;45483;-76
2021/12/01 08:49:45;;;;;;;;;0.00;0.00;;;;;12.14;76.51;99701.91;5044131;28;45493;-75
2021/12/01 08:52:10;;;;;;;;;0.00;0.00;;;;;12.10;76.45;99684.34;4934631;22;45401;-75
2021/12/01 08:54:36;;;;;;;;;0.00;0.00;;;;;12.18;76.46;99689.53;5071743;27;49899;-75
2021/12/01 08:57:01;;;;;;;;;2.33;0.00;;;;;12.28;76.00;99699.94;5070253;28;45517;-76
2021/12/01 08:59:26;;;;;;;;;0.00;0.00;;;;;12.37;75.83;99701.59;5068398;28;47085;-76
2021/12/01 09:01:52;;;;;;;;;0.00;0.00;;;;;12.47;75.63;99679.41;5073821;28;47623;-76
2021/12/01 09:04:18;;;;;;;;;1.67;0.00;;;;;12.58;74.96;99700.41;5070470;28;66316;-75
2021/12/01 09:06:43;;;;;;;;;0.00;0.00;;;;;12.62;75.09;99699.44;5066990;28;45398;-76
2021/12/01 09:09:09;;;;;;;;;0.00;0.00;;;;;12.61;74.35;99696.84;5073753;28;51316;-78
2021/12/01 09:11:34;;;;;;;;;0.00;0.00;;;;;12.68;74.26;99696.72;5053653;28;46481;-78
2021/12/01 09:14:00;;;;;;;;;0.00;0.00;;;;;12.68;73.96;99690.56;5073788;28;62590;-80
2021/12/01 09:16:25;;;;;;;;;1.00;0.00;;;;;12.62;73.62;99695.91;5066749;28;56877;-77
2021/12/01 09:18:51;;;;;;;;;0.00;0.00;;;;;12.63;72.78;99705.66;5068544;28;45538;-76
2021/12/01 09:21:18;;;;;;;;;0.00;0.00;;;;;12.61;73.70;99704.78;5055968;28;47465;-76
2021/12/01 09:23:44;;;;;;;;;0.00;0.00;;;;;12.56;73.25;99687.19;5068580;28;45697;-78
2021/12/01 09:26:09;;;;;;;;;0.00;0.00;;;;;12.54;72.57;99699.56;5069127;28;45759;-79
2021/12/01 09:28:37;;;;;;;;;0.00;0.00;;;;;12.55;73.07;99705.75;5073454;28;51225;-77
2021/12/01 09:31:06;;;;;;;;;0.00;0.00;;;;;12.53;72.74;99697.84;5068182;28;53985;-77
2021/12/01 09:33:32;;;;;;;;;0.00;0.00;;;;;12.52;72.68;99711.97;5056974;28;45490;-78
2021/12/01 09:35:57;;;;;;;;;0.00;0.00;;;;;12.48;72.05;99707.63;5072230;28;45516;-78
2021/12/01 09:38:22;;;;;;;;;0.00;0.00;;;;;12.49;71.95;99714.66;5074286;28;52290;-79
2021/12/01 09:40:51;;;;;;;;;1.00;0.00;;;;;12.48;72.36;99720.84;5070621;28;46464;-76
2021/12/01 09:43:17;;;;;;;;;1.00;0.00;;;;;12.53;72.06;99726.97;5053119;28;45560;-76
2021/12/01 09:45:42;;;;;;;;;0.00;0.00;;;;;12.58;71.58;99727.78;5075271;28;45564;-78
2021/12/01 09:48:10;;;;;;;;;0.67;0.00;;;;;12.60;71.92;99733.03;5075700;28;59194;-76
2021/12/01 09:50:36;;;;;;;;;1.00;0.00;;;;;12.62;71.98;99722.41;5069700;28;66826;-78
2021/12/01 09:53:01;;;;;;;;;0.00;0.00;;;;;12.68;71.50;99731.16;5053336;27;46432;-79
2021/12/01 09:55:27;;;;;;;;;0.00;0.00;;;;;12.68;71.85;99725.88;5073502;28;45885;-78
2021/12/01 09:58:07;;;;;;;;;2.00;0.00;;;;;12.78;70.90;99730.13;5075414;28;45457;-77
2021/12/01 10:00:34;;;;;;;;;1.67;0.00;;;;;12.77;71.57;99730.13;5074086;28;46493;-76
2021/12/01 10:02:59;;;;;;;;;0.00;0.00;;;;;12.79;71.32;99728.34;5073803;28;45561;-76
2021/12/01 10:06:01;;;;;;;;;3.00;2.00;;;;;12.74;71.72;99731.06;5051939;28;45937;-77
2021/12/01 10:08:30;;;;;;;;;1.67;0.00;;;;;12.66;71.58;99725.00;5074691;28;45444;-77
2021/12/01 10:10:56;;;;;;;;;1.00;0.00;;;;;12.44;71.85;99728.84;5070580;28;47352;-78
2021/12/01 10:13:29;;;;;;;;;0.00;0.00;;;;;12.36;71.48;99746.59;5074511;28;45470;-78
2021/12/01 10:15:56;;;;;;;;;0.00;0.00;;;;;12.17;71.96;99746.88;5076616;28;45303;-78
2021/12/01 10:18:21;;;;;;;;;0.00;0.00;;;;;11.96;73.28;99757.72;5074401;28;45646;-79
2021/12/01 10:21:04;;;;;;;;;0.00;0.00;;;;;11.75;73.93;99756.16;5069394;28;47405;-78
2021/12/01 10:23:30;;;;;;;;;1.33;0.33;;;;;11.58;75.06;99753.69;5050122;28;46207;-76
2021/12/01 10:25:56;;;;;;;;;1.67;0.00;;;;;11.47;76.15;99748.53;5068497;28;45466;-78
2021/12/01 10:28:52;;;;;;;;;1.00;1.00;;;;;11.39;76.02;99741.53;5068559;28;45536;-78
2021/12/01 10:31:33;;;;;;;;;0.00;0.00;;;;;11.27;76.57;99742.53;5059034;28;46738;-76
2021/12/01 10:34:23;;;;;;;;;0.00;0.00;;;;;11.24;76.83;99747.88;5069117;28;45552;-80
2021/12/01 10:36:50;;;;;;;;;0.00;0.00;;;;;11.19;77.17;99733.84;5070942;28;45154;-77
2021/12/01 10:39:16;;;;;;;;;0.00;0.00;;;;;11.21;77.27;99751.41;5071687;28;45458;-77
2021/12/01 10:41:42;;;;;;;;;0.00;0.00;;;;;11.22;77.30;99744.34;5039469;28;46426;-76
2021/12/01 10:44:13;;;;;;;;;0.00;0.00;;;;;11.21;77.06;99737.31;5068801;28;45580;-77
2021/12/01 10:46:49;;;;;;;;;0.00;0.00;;;;;11.32;77.19;99750.44;5073448;28;45560;-76
2021/12/01 10:49:15;;;;;;;;;4.00;1.00;;;;;11.31;76.99;99741.63;5063559;28;46441;-77
2021/12/01 10:51:43;;;;;;;;;1.67;1.00;;;;;11.34;76.96;99744.22;5060503;28;47645;-77
2021/12/01 10:54:18;;;;;;;;;2.00;0.67;;;;;11.40;76.90;99748.56;5052626;28;45616;-76
2021/12/01 10:56:45;;;;;;;;;2.00;0.33;;;;;11.37;76.96;99741.56;5071092;28;45411;-77
2021/12/01 10:59:15;;;;;;;;;6.33;2.67;;;;;11.35;76.99;99735.44;5054949;28;45777;-77
2021/12/01 11:01:40;;;;;;;;;1.33;1.33;;;;;11.39;76.99;99742.41;5069707;28;46569;-77
2021/12/01 11:04:06;;;;;;;;;3.00;1.00;;;;;11.45;76.92;99741.47;5071589;28;45484;-76
2021/12/01 11:06:37;;;;;;;;;4.00;1.00;;;;;11.55;76.73;99743.13;5072541;28;45597;-77
2021/12/01 11:09:02;;;;;;;;;1.00;1.00;;;;;11.65;76.64;99739.50;5053589;28;45405;-78
2021/12/01 11:11:57;;;;;;;;;2.00;2.00;;;;;11.71;76.13;99733.28;5064282;28;46723;-77
2021/12/01 11:14:23;;;;;;;;;1.33;1.33;;;;;11.61;76.01;99718.41;5038159;28;56692;-77
2021/12/01 11:16:49;;;;;;;;;3.33;1.00;;;;;11.63;76.07;99738.66;5074153;28;46650;-77
2021/12/01 11:19:14;;;;;;;;;1.00;1.00;;;;;11.58;76.09;99732.56;5076867;28;45337;-77
2021/12/01 11:21:40;;;;;;;;;1.00;1.00;;;;;11.53;75.84;99729.94;5058814;28;46418;-78
2021/12/01 11:24:10;;;;;;;;;1.00;1.00;;;;;11.50;75.81;99727.34;5040146;28;45465;-78
2021/12/01 11:26:36;;;;;;;;;0.67;0.67;;;;;11.55;75.96;99740.50;5056408;28;45525;-80
2021/12/01 11:29:06;;;;;;;;;5.67;1.00;;;;;11.55;75.56;99730.78;5070205;28;45435;-78
2021/12/01 11:31:34;;;;;;;;;3.00;1.33;;;;;11.55;75.32;99719.34;5068931;28;46910;-78
2021/12/01 11:34:01;;;;;;;;;5.33;1.33;;;;;11.66;75.83;99729.81;5078393;28;45362;-78